Time;durP1;ratioP1;P1;durP2;ratioP2;P2;SDS_P1;SDS_P2;PMS_P1;PMS_P2;Temp;Humidity;BMP_temperature;BMP_pressure;BME280_temperature;BME280_humidity;BME280_pressure;Samples;Min_cycle;Max_cycle;Signal;HPM_P1;HPM_P2
2021/12/21 00:00:14;;;;;;;12.70;5.00;;;-1.20;99.90;;;;;;5026664;28;20432;-60
2021/12/21 00:02:45;;;;;;;9.63;4.60;;;-1.20;99.90;;;;;;5025969;28;20177;-61
2021/12/21 00:05:17;;;;;;;10.40;4.30;;;-1.20;99.90;;;;;;5027812;28;20429;-61
2021/12/21 00:07:44;;;;;;;16.83;4.70;;;-1.20;99.90;;;;;;5040055;28;20463;-61
2021/12/21 00:10:11;;;;;;;11.93;4.73;;;-1.20;99.90;;;;;;5025347;28;20455;-60
2021/12/21 00:12:40;;;;;;;13.77;5.47;;;-1.20;99.90;;;;;;5025930;28;20422;-61
2021/12/21 00:15:19;;;;;;;15.10;5.00;;;-1.20;99.90;;;;;;5027840;28;20427;-61
2021/12/21 00:25:22;;;;;;;11.77;4.83;;;-1.30;99.90;;;;;;5028482;28;20419;-61
2021/12/21 00:27:51;;;;;;;12.17;4.10;;;-1.30;99.90;;;;;;5022743;28;20503;-60
2021/12/21 00:30:17;;;;;;;11.90;4.27;;;-1.30;99.90;;;;;;5027540;28;20965;-62
2021/12/21 00:32:44;;;;;;;9.00;4.90;;;-1.30;99.90;;;;;;5027877;28;20862;-60
2021/12/21 00:35:10;;;;;;;13.93;4.77;;;-1.30;99.90;;;;;;5026841;28;20790;-61
2021/12/21 00:37:39;;;;;;;13.00;5.03;;;-1.40;99.90;;;;;;5024882;28;20802;-62
2021/12/21 00:40:05;;;;;;;7.37;4.20;;;-1.40;99.90;;;;;;5027136;28;20615;-61
2021/12/21 00:42:30;;;;;;;7.93;4.00;;;-1.40;99.90;;;;;;5025284;28;20468;-61
2021/12/21 00:44:56;;;;;;;6.73;4.17;;;-1.40;99.90;;;;;;5025755;28;20424;-61
2021/12/21 00:47:22;;;;;;;13.67;4.70;;;-1.40;99.90;;;;;;5041982;28;20192;-61
2021/12/21 00:49:57;;;;;;;9.70;4.43;;;-1.50;99.90;;;;;;5028492;28;20209;-62
2021/12/21 00:52:24;;;;;;;13.73;5.10;;;-1.50;99.90;;;;;;5028661;28;20169;-61
2021/12/21 00:54:50;;;;;;;15.70;4.57;;;-1.50;99.90;;;;;;5030645;28;20428;-60
2021/12/21 00:57:16;;;;;;;12.27;5.17;;;-1.50;99.90;;;;;;5028005;28;20435;-60
2021/12/21 00:59:41;;;;;;;12.93;4.80;;;-1.50;99.90;;;;;;5030149;28;20204;-61
2021/12/21 01:02:07;;;;;;;11.70;4.43;;;-1.50;99.90;;;;;;5028928;28;20188;-62
2021/12/21 01:04:39;;;;;;;10.00;4.53;;;-1.60;99.90;;;;;;5044239;28;20674;-62
2021/12/21 01:12:16;;;;;;;10.87;5.10;;;-1.60;99.90;;;;;;5028984;28;20198;-62
2021/12/21 01:17:48;;;;;;;11.30;5.77;;;-1.60;99.90;;;;;;5029558;28;20477;-61
2021/12/21 01:20:25;;;;;;;12.27;5.27;;;-1.70;99.90;;;;;;5028504;28;20444;-61
2021/12/21 01:25:40;;;;;;;10.53;5.10;;;-1.80;99.90;;;;;;5029867;28;20435;-61
2021/12/21 01:28:23;;;;;;;12.97;5.63;;;-1.80;99.90;;;;;;5027778;28;20495;-61
2021/12/21 01:35:57;;;;;;;7.00;4.50;;;-1.80;99.90;;;;;;5028380;28;20432;-61
2021/12/21 01:41:09;;;;;;;11.37;5.77;;;-1.90;99.90;;;;;;5029169;28;20420;-61
2021/12/21 01:43:41;;;;;;;16.20;5.43;;;-1.90;99.90;;;;;;5027853;28;20997;-61
2021/12/21 01:51:36;;;;;;;12.60;5.77;;;-1.90;99.90;;;;;;5027699;28;21035;-61
2021/12/21 01:54:02;;;;;;;13.43;5.47;;;-1.90;99.90;;;;;;5028500;28;20493;-61
2021/12/21 01:56:28;;;;;;;11.00;4.90;;;-1.90;99.90;;;;;;5043764;28;20424;-60
2021/12/21 01:58:54;;;;;;;12.77;5.67;;;-1.90;99.90;;;;;;5029841;28;20470;-61
2021/12/21 02:01:23;;;;;;;12.50;5.70;;;-1.90;99.90;;;;;;5029293;28;20192;-61
2021/12/21 02:03:49;;;;;;;13.90;5.73;;;-2.00;99.90;;;;;;5029371;28;20181;-60
2021/12/21 02:06:22;;;;;;;11.60;5.57;;;-2.00;99.90;;;;;;5028335;28;20494;-61
2021/12/21 02:08:48;;;;;;;11.03;6.27;;;-2.00;99.90;;;;;;5045109;28;20508;-61
2021/12/21 02:11:14;;;;;;;12.97;5.70;;;-2.00;99.90;;;;;;5026101;28;20445;-60
2021/12/21 02:13:45;;;;;;;6.27;4.73;;;-2.10;99.90;;;;;;5026497;28;20423;-61
2021/12/21 02:16:11;;;;;;;15.13;5.50;;;-2.10;99.90;;;;;;5045075;28;20818;-60
2021/12/21 02:21:33;;;;;;;15.07;6.27;;;-2.20;99.90;;;;;;5025029;28;20415;-59
2021/12/21 02:24:05;;;;;;;9.80;5.40;;;-2.20;99.90;;;;;;5040937;28;20411;-60
2021/12/21 02:29:13;;;;;;;11.60;5.53;;;-2.20;99.90;;;;;;5025594;28;20456;-62
2021/12/21 02:31:40;;;;;;;8.70;5.90;;;-2.20;99.90;;;;;;5023586;28;20471;-60
2021/12/21 02:34:07;;;;;;;10.27;5.20;;;-2.20;99.90;;;;;;5023435;28;20423;-59
2021/12/21 02:36:33;;;;;;;17.20;5.40;;;-2.30;99.90;;;;;;5022248;28;20444;-60
2021/12/21 02:39:01;;;;;;;14.80;5.83;;;-2.30;99.90;;;;;;5022143;28;20537;-60
2021/12/21 02:41:26;;;;;;;10.57;6.10;;;-2.30;99.90;;;;;;5020955;28;20428;-61
2021/12/21 02:43:55;;;;;;;14.50;5.77;;;-2.30;99.90;;;;;;5020403;28;21096;-60
2021/12/21 02:46:23;;;;;;;9.80;5.30;;;-2.30;99.90;;;;;;5009711;28;20178;-56
2021/12/21 02:48:49;;;;;;;8.47;5.23;;;-2.30;99.90;;;;;;5008889;28;20484;-58
2021/12/21 02:51:15;;;;;;;13.73;5.40;;;-2.30;99.90;;;;;;5020349;28;20763;-58
2021/12/21 02:53:41;;;;;;;14.53;6.13;;;-2.30;99.90;;;;;;5002867;28;20643;-59
2021/12/21 02:56:07;;;;;;;8.47;5.23;;;-2.30;99.90;;;;;;5006202;28;20184;-59
2021/12/21 02:58:33;;;;;;;12.13;5.40;;;-2.30;99.90;;;;;;5004741;28;20551;-59
2021/12/21 03:00:58;;;;;;;8.73;4.63;;;-2.30;99.90;;;;;;5005560;28;20519;-56
2021/12/21 03:03:26;;;;;;;12.47;5.83;;;-2.30;99.90;;;;;;5003139;28;20261;-59
2021/12/21 03:05:55;;;;;;;10.33;6.40;;;-2.30;99.90;;;;;;5004573;28;20515;-59
2021/12/21 03:08:25;;;;;;;18.77;6.00;;;-2.30;99.90;;;;;;5003260;28;21003;-59
2021/12/21 03:11:03;;;;;;;11.77;5.90;;;-2.30;99.90;;;;;;5004753;28;21051;-59
2021/12/21 03:16:15;;;;;;;10.33;6.00;;;-2.30;99.90;;;;;;5028981;28;20532;-63
2021/12/21 03:18:41;;;;;;;13.73;6.30;;;-2.30;99.90;;;;;;5029966;28;20487;-63
2021/12/21 03:21:06;;;;;;;12.27;5.30;;;-2.40;99.90;;;;;;5019017;28;20447;-59
2021/12/21 03:23:32;;;;;;;15.87;6.30;;;-2.40;99.90;;;;;;5005397;28;20198;-62
2021/12/21 03:25:58;;;;;;;17.03;7.07;;;-2.50;99.90;;;;;;5003267;28;20187;-61
2021/12/21 03:28:24;;;;;;;11.83;5.90;;;-2.50;99.90;;;;;;5003200;28;20473;-59
2021/12/21 03:30:49;;;;;;;11.80;6.13;;;-2.60;99.90;;;;;;5001316;28;20551;-59
2021/12/21 03:33:15;;;;;;;10.90;6.83;;;-2.70;99.90;;;;;;5000590;28;20212;-57
2021/12/21 03:35:41;;;;;;;15.23;6.17;;;-2.70;99.90;;;;;;5003982;28;20406;-60
2021/12/21 03:38:06;;;;;;;9.37;5.83;;;-2.70;99.90;;;;;;5004679;28;20205;-58
2021/12/21 03:40:33;;;;;;;11.00;6.03;;;-2.70;99.90;;;;;;5005307;28;20193;-59
2021/12/21 03:43:00;;;;;;;8.03;5.00;;;-2.70;99.90;;;;;;5003656;28;20184;-57
2021/12/21 03:45:29;;;;;;;12.60;5.37;;;-2.70;99.90;;;;;;5004973;28;20427;-59
2021/12/21 03:47:55;;;;;;;8.70;5.43;;;-2.70;99.90;;;;;;5003583;28;20491;-59
2021/12/21 03:50:23;;;;;;;10.27;5.70;;;-2.80;99.90;;;;;;5002531;28;20503;-58
2021/12/21 03:52:49;;;;;;;19.20;6.40;;;-2.80;99.90;;;;;;5004894;28;20173;-56
2021/12/21 03:55:14;;;;;;;9.33;6.07;;;-2.80;99.90;;;;;;5005424;28;20519;-58
2021/12/21 03:57:41;;;;;;;12.30;6.00;;;-2.80;99.90;;;;;;5005137;28;20639;-59
2021/12/21 04:00:11;;;;;;;8.20;5.97;;;-2.80;99.90;;;;;;5005530;28;20761;-59
2021/12/21 04:02:37;;;;;;;19.33;5.67;;;-2.80;99.90;;;;;;5003160;28;20760;-59
2021/12/21 04:05:04;;;;;;;14.20;6.00;;;-2.80;99.90;;;;;;5006692;28;20420;-57
2021/12/21 04:07:29;;;;;;;7.50;5.10;;;-2.80;99.90;;;;;;5006442;28;20437;-59
2021/12/21 04:09:56;;;;;;;11.70;5.97;;;-2.80;99.90;;;;;;5005285;28;20460;-59
2021/12/21 04:12:22;;;;;;;14.20;6.60;;;-2.80;99.90;;;;;;5001812;28;20179;-60
2021/12/21 04:14:48;;;;;;;11.87;5.90;;;-2.80;99.90;;;;;;5005211;28;20421;-58
2021/12/21 04:17:21;;;;;;;12.97;6.20;;;-2.80;99.90;;;;;;5004845;28;20278;-57
2021/12/21 04:19:47;;;;;;;20.77;5.57;;;-2.80;99.90;;;;;;5005168;28;20421;-58
2021/12/21 04:22:14;;;;;;;11.43;5.70;;;-2.90;99.90;;;;;;5004070;28;20420;-62
2021/12/21 04:24:40;;;;;;;11.57;5.90;;;-2.90;99.90;;;;;;5004107;28;20427;-58
2021/12/21 04:27:06;;;;;;;7.80;5.27;;;-2.90;99.90;;;;;;5009411;28;20433;-59
2021/12/21 04:29:32;;;;;;;13.67;5.77;;;-2.90;99.90;;;;;;5008484;28;20284;-59
2021/12/21 04:31:58;;;;;;;12.33;5.50;;;-2.90;99.90;;;;;;5009517;28;20429;-59
2021/12/21 04:34:23;;;;;;;11.73;6.40;;;-2.90;99.90;;;;;;5009009;28;20440;-59
2021/12/21 04:36:49;;;;;;;12.77;5.90;;;-2.90;99.90;;;;;;5007648;28;20186;-59
2021/12/21 04:39:29;;;;;;;9.90;5.43;;;-2.90;99.90;;;;;;5006313;28;20236;-59
2021/12/21 04:41:55;;;;;;;16.30;5.57;;;-3.00;99.90;;;;;;5008139;28;20186;-59
2021/12/21 04:44:20;;;;;;;13.87;5.83;;;-3.00;99.90;;;;;;5027111;28;20414;-63
2021/12/21 04:46:46;;;;;;;12.80;6.40;;;-3.00;99.90;;;;;;5020776;28;20438;-59
2021/12/21 04:49:12;;;;;;;10.80;5.40;;;-3.00;99.90;;;;;;5010863;28;20217;-57
2021/12/21 04:51:38;;;;;;;8.80;5.67;;;-3.00;99.90;;;;;;5007861;28;20938;-59
2021/12/21 04:54:04;;;;;;;8.93;5.20;;;-3.00;99.90;;;;;;5005873;28;20186;-58
2021/12/21 04:56:29;;;;;;;10.57;6.27;;;-3.00;99.90;;;;;;5008538;28;20182;-56
2021/12/21 04:58:55;;;;;;;13.53;6.27;;;-3.10;99.90;;;;;;5002810;28;20205;-56
2021/12/21 05:01:21;;;;;;;14.87;6.90;;;-3.10;99.90;;;;;;5003729;28;20205;-61
2021/12/21 05:03:46;;;;;;;9.97;6.00;;;-3.10;99.90;;;;;;5007270;28;20584;-57
2021/12/21 05:06:14;;;;;;;14.43;7.27;;;-3.10;99.90;;;;;;5006210;28;20186;-62
2021/12/21 05:08:40;;;;;;;13.00;7.40;;;-3.10;99.90;;;;;;5004492;28;20217;-58
2021/12/21 05:11:07;;;;;;;13.40;6.33;;;-3.20;99.90;;;;;;5002615;28;21074;-57
2021/12/21 05:13:38;;;;;;;19.63;6.37;;;-3.20;99.90;;;;;;5008402;28;20479;-60
2021/12/21 05:16:05;;;;;;;17.70;6.37;;;-3.20;99.90;;;;;;5003649;28;20452;-58
2021/12/21 05:18:32;;;;;;;14.00;7.50;;;-3.20;99.90;;;;;;5005070;28;21005;-59
2021/12/21 05:20:58;;;;;;;16.03;6.03;;;-3.20;99.90;;;;;;5008723;28;20436;-59
2021/12/21 05:23:24;;;;;;;16.23;7.17;;;-3.20;99.90;;;;;;5005526;28;20851;-59
2021/12/21 05:25:50;;;;;;;11.63;6.70;;;-3.20;99.90;;;;;;5003704;28;20936;-59
2021/12/21 05:28:16;;;;;;;18.03;6.70;;;-3.20;99.90;;;;;;5008217;28;20701;-60
2021/12/21 05:30:43;;;;;;;13.33;6.90;;;-3.10;99.90;;;;;;5001879;28;20181;-59
2021/12/21 05:33:09;;;;;;;15.93;7.90;;;-3.10;99.90;;;;;;5002605;28;20436;-61
2021/12/21 05:35:36;;;;;;;13.60;6.60;;;-3.20;99.90;;;;;;5004252;28;20433;-58
2021/12/21 05:38:07;;;;;;;20.10;6.90;;;-3.20;99.90;;;;;;5004313;28;20443;-59
2021/12/21 05:40:44;;;;;;;14.53;8.30;;;-3.20;99.90;;;;;;5016162;28;21384;-59
2021/12/21 05:43:11;;;;;;;18.00;9.27;;;-3.30;99.90;;;;;;5004167;28;20485;-61
2021/12/21 05:45:37;;;;;;;20.43;10.33;;;-3.30;99.90;;;;;;5004564;28;20428;-57
2021/12/21 05:48:04;;;;;;;15.17;8.30;;;-3.30;99.90;;;;;;5003233;28;20892;-58
2021/12/21 05:50:29;;;;;;;17.77;9.40;;;-3.30;99.90;;;;;;4998428;28;20564;-59
2021/12/21 05:52:55;;;;;;;20.83;9.90;;;-3.30;99.90;;;;;;5001602;28;20461;-59
2021/12/21 05:55:21;;;;;;;21.03;8.33;;;-3.30;99.90;;;;;;5002410;28;20468;-58
2021/12/21 05:57:48;;;;;;;20.17;9.17;;;-3.30;99.90;;;;;;5005028;28;20278;-60
2021/12/21 06:00:20;;;;;;;17.30;8.33;;;-3.30;99.90;;;;;;5003487;28;20473;-59
2021/12/21 06:02:46;;;;;;;16.30;8.00;;;-3.30;99.90;;;;;;5003069;28;20436;-60
2021/12/21 06:05:11;;;;;;;18.03;8.27;;;-3.40;99.90;;;;;;5003998;28;20433;-60
2021/12/21 06:07:37;;;;;;;17.60;8.33;;;-3.40;99.90;;;;;;5000841;28;20193;-60
2021/12/21 06:10:19;;;;;;;18.40;7.90;;;-3.40;99.90;;;;;;5000609;28;20515;-61
2021/12/21 06:16:08;;;;;;;16.13;8.70;;;-3.40;99.90;;;;;;5002094;28;21316;-62
2021/12/21 06:26:15;;;;;;;21.90;9.00;;;-3.40;99.90;;;;;;5007463;28;20923;-60
2021/12/21 06:28:42;;;;;;;16.17;8.30;;;-3.40;99.90;;;;;;5011221;28;20946;-58
2021/12/21 06:31:08;;;;;;;18.17;8.53;;;-3.40;99.90;;;;;;5013021;28;20516;-60
2021/12/21 06:33:34;;;;;;;18.53;8.80;;;-3.40;99.90;;;;;;5017736;28;20455;-62
2021/12/21 06:36:01;;;;;;;14.90;7.83;;;-3.40;99.90;;;;;;5032619;28;20504;-61
2021/12/21 06:38:28;;;;;;;17.87;9.13;;;-3.40;99.90;;;;;;5019648;28;20483;-59
2021/12/21 06:40:54;;;;;;;16.93;9.57;;;-3.40;99.90;;;;;;5001179;28;20437;-64
2021/12/21 06:43:20;;;;;;;22.50;10.63;;;-3.50;99.90;;;;;;5012009;28;20440;-63
2021/12/21 06:45:56;;;;;;;30.73;11.27;;;-3.50;99.90;;;;;;5007674;28;20182;-56
2021/12/21 06:53:37;;;;;;;22.07;9.57;;;-3.60;99.90;;;;;;5022515;28;20437;-63
2021/12/21 06:56:05;;;;;;;18.17;8.37;;;-3.60;99.90;;;;;;5024508;28;20421;-63
2021/12/21 06:58:31;;;;;;;16.33;8.90;;;-3.60;99.90;;;;;;5024303;28;20462;-61
2021/12/21 07:00:57;;;;;;;17.07;9.67;;;-3.70;99.90;;;;;;5005993;28;20466;-58
2021/12/21 07:03:23;;;;;;;28.33;9.50;;;-3.70;99.90;;;;;;5002825;28;20184;-57
2021/12/21 07:05:50;;;;;;;20.90;10.20;;;-3.70;99.90;;;;;;5011657;28;20470;-58
2021/12/21 07:08:21;;;;;;;22.43;10.47;;;-3.70;99.90;;;;;;4998868;28;20532;-58
2021/12/21 07:11:03;;;;;;;20.03;9.90;;;-3.70;99.90;;;;;;5003319;28;20450;-59
2021/12/21 07:18:57;;;;;;;17.20;10.00;;;-3.70;99.90;;;;;;5002079;28;20513;-64
2021/12/21 07:21:23;;;;;;;27.37;9.30;;;-3.70;99.90;;;;;;5004864;28;20431;-57
2021/12/21 07:23:51;;;;;;;17.23;9.50;;;-3.80;99.90;;;;;;5004054;28;20561;-56
2021/12/21 07:26:17;;;;;;;23.60;10.73;;;-3.80;99.90;;;;;;4998616;28;20293;-56
2021/12/21 07:28:43;;;;;;;25.53;10.10;;;-3.80;99.90;;;;;;5004944;28;20478;-56
2021/12/21 07:31:09;;;;;;;21.70;10.50;;;-3.80;99.90;;;;;;5009535;28;20714;-56
2021/12/21 07:33:34;;;;;;;27.23;13.00;;;-3.80;99.90;;;;;;5011866;28;20617;-52
2021/12/21 07:36:00;;;;;;;28.13;12.73;;;-3.80;99.90;;;;;;5024891;28;20170;-61
2021/12/21 07:38:30;;;;;;;34.47;14.43;;;-3.80;99.90;;;;;;5026389;28;20208;-64
2021/12/21 07:40:57;;;;;;;26.80;12.17;;;-3.80;99.90;;;;;;5043206;28;20162;-60
2021/12/21 07:43:23;;;;;;;28.77;12.40;;;-3.70;99.90;;;;;;5031889;28;20466;-65
2021/12/21 07:45:49;;;;;;;17.87;10.60;;;-3.70;99.90;;;;;;5049295;28;20440;-62
2021/12/21 07:48:14;;;;;;;23.90;11.03;;;-3.70;99.90;;;;;;5021457;28;20708;-58
2021/12/21 07:50:40;;;;;;;35.70;12.77;;;-3.70;99.90;;;;;;5007950;28;20286;-57
2021/12/21 07:53:06;;;;;;;27.00;11.80;;;-3.70;99.90;;;;;;5005120;28;20420;-57
2021/12/21 07:55:32;;;;;;;30.00;13.50;;;-3.70;99.90;;;;;;4994388;28;20421;-60
2021/12/21 07:57:58;;;;;;;26.30;12.33;;;-3.70;99.90;;;;;;5025951;28;20733;-62
2021/12/21 08:00:24;;;;;;;31.40;12.27;;;-3.70;99.90;;;;;;5020621;28;20200;-66
2021/12/21 08:02:50;;;;;;;36.60;14.97;;;-3.70;99.90;;;;;;5012331;28;20178;-60
2021/12/21 08:05:16;;;;;;;28.20;14.33;;;-3.70;99.90;;;;;;5003707;28;20177;-58
2021/12/21 08:07:58;;;;;;;36.87;12.10;;;-3.70;99.90;;;;;;5006274;28;20455;-58
2021/12/21 08:10:29;;;;;;;38.67;17.03;;;-3.70;99.90;;;;;;5006715;28;20496;-62
2021/12/21 08:12:56;;;;;;;34.53;15.67;;;-3.70;99.90;;;;;;4996822;28;20429;-60
2021/12/21 08:15:23;;;;;;;33.53;14.53;;;-3.70;99.90;;;;;;5006720;28;20433;-64
2021/12/21 08:17:52;;;;;;;32.17;14.87;;;-3.60;99.90;;;;;;5008928;28;20459;-62
2021/12/21 08:20:18;;;;;;;35.80;14.67;;;-3.60;99.90;;;;;;4999732;28;20521;-60
2021/12/21 08:22:43;;;;;;;32.43;14.83;;;-3.60;99.90;;;;;;5006966;28;21002;-58
2021/12/21 08:25:10;;;;;;;28.67;14.90;;;-3.50;99.90;;;;;;5016485;28;20178;-59
2021/12/21 08:27:35;;;;;;;34.23;15.40;;;-3.50;99.90;;;;;;5009255;28;20171;-59
2021/12/21 08:30:01;;;;;;;43.33;15.70;;;-3.40;99.90;;;;;;5007385;28;20472;-61
2021/12/21 08:32:27;;;;;;;42.43;17.63;;;-3.40;99.90;;;;;;5005007;28;20178;-60
2021/12/21 08:34:52;;;;;;;33.53;15.77;;;-3.30;99.90;;;;;;5014830;28;20962;-62
2021/12/21 08:37:18;;;;;;;30.13;16.27;;;-3.30;99.90;;;;;;5005072;28;20178;-58
2021/12/21 08:39:44;;;;;;;40.40;18.63;;;-3.30;99.90;;;;;;5007528;28;20173;-57
2021/12/21 08:42:13;;;;;;;30.40;18.47;;;-3.20;99.90;;;;;;5014176;28;20177;-58
2021/12/21 08:44:40;;;;;;;22.90;10.83;;;-3.20;99.90;;;;;;5029564;28;20524;-59
2021/12/21 08:47:06;;;;;;;19.57;10.20;;;-3.10;99.90;;;;;;5027840;28;20436;-59
2021/12/21 08:49:32;;;;;;;16.90;9.07;;;-3.10;99.90;;;;;;5029235;28;20533;-62
2021/12/21 08:51:57;;;;;;;14.03;8.80;;;-3.10;99.90;;;;;;5019910;28;20260;-60
2021/12/21 08:54:24;;;;;;;20.40;9.13;;;-3.10;99.90;;;;;;5018651;28;20203;-61
2021/12/21 08:56:50;;;;;;;15.30;8.50;;;-3.10;99.90;;;;;;5010487;28;20417;-59
2021/12/21 08:59:17;;;;;;;14.17;8.50;;;-3.00;99.90;;;;;;5010752;28;20915;-59
2021/12/21 09:01:43;;;;;;;18.33;9.40;;;-2.90;99.90;;;;;;5009992;28;20444;-59
2021/12/21 09:04:10;;;;;;;21.60;9.47;;;-2.90;99.90;;;;;;5020635;28;20511;-63
2021/12/21 09:06:35;;;;;;;27.33;10.10;;;-2.80;99.90;;;;;;5004299;28;20442;-61
2021/12/21 09:09:01;;;;;;;18.47;9.17;;;-2.80;99.90;;;;;;5009681;28;20977;-57
2021/12/21 09:11:28;;;;;;;21.43;9.53;;;-2.70;99.90;;;;;;5007432;28;20181;-57
2021/12/21 09:13:54;;;;;;;20.13;9.17;;;-2.70;99.90;;;;;;5006409;28;20448;-55
2021/12/21 09:16:19;;;;;;;19.53;8.80;;;-2.60;99.90;;;;;;5024570;28;20423;-57
2021/12/21 09:18:45;;;;;;;17.90;9.40;;;-2.60;99.90;;;;;;5020103;28;21040;-55
2021/12/21 09:21:12;;;;;;;18.40;9.00;;;-2.50;99.90;;;;;;5009484;28;20265;-57
2021/12/21 09:23:38;;;;;;;21.07;9.70;;;-2.50;99.90;;;;;;5003798;28;20418;-56
2021/12/21 09:26:03;;;;;;;19.53;9.53;;;-2.40;99.90;;;;;;5023939;28;20432;-56
2021/12/21 09:28:29;;;;;;;20.93;8.00;;;-2.30;99.90;;;;;;5011553;28;20460;-58
2021/12/21 09:30:55;;;;;;;19.23;9.10;;;-2.20;99.90;;;;;;5013710;28;20185;-59
2021/12/21 09:33:20;;;;;;;18.60;8.43;;;-2.10;99.90;;;;;;5011571;28;20229;-58
2021/12/21 09:35:46;;;;;;;15.40;9.57;;;-2.00;99.90;;;;;;5009691;28;20622;-57
2021/12/21 09:38:12;;;;;;;20.17;8.17;;;-1.90;99.90;;;;;;5024358;28;20202;-64
2021/12/21 09:40:39;;;;;;;13.27;8.30;;;-1.80;99.90;;;;;;5044883;28;20182;-56
2021/12/21 09:43:08;;;;;;;13.47;7.97;;;-1.70;99.90;;;;;;5012715;28;20186;-56
2021/12/21 09:45:34;;;;;;;17.73;9.03;;;-1.70;99.90;;;;;;5010455;28;20942;-57
2021/12/21 09:48:00;;;;;;;17.37;8.13;;;-1.60;99.90;;;;;;5015137;28;20774;-56
2021/12/21 09:50:26;;;;;;;15.00;7.50;;;-1.50;99.90;;;;;;5016683;28;20516;-61
2021/12/21 09:52:55;;;;;;;11.27;7.70;;;-1.50;99.90;;;;;;5011424;28;20180;-58
2021/12/21 09:55:21;;;;;;;10.80;7.20;;;-1.40;99.90;;;;;;5010541;28;20437;-56
2021/12/21 09:57:51;;;;;;;15.50;8.33;;;-1.40;99.90;;;;;;5014606;28;20460;-56
2021/12/21 10:00:25;;;;;;;16.07;9.00;;;-1.30;99.90;;;;;;5009235;28;20819;-56
2021/12/21 10:02:52;;;;;;;17.07;8.40;;;-1.30;99.90;;;;;;5015462;28;20480;-56
2021/12/21 10:05:21;;;;;;;15.13;8.50;;;-1.30;99.90;;;;;;5009478;28;20523;-58
2021/12/21 10:08:05;;;;;;;17.67;9.37;;;-1.20;99.90;;;;;;5021145;28;20465;-60
2021/12/21 10:10:34;;;;;;;18.67;8.80;;;-1.00;99.90;;;;;;5011958;28;20559;-58
2021/12/21 10:13:08;;;;;;;14.33;8.77;;;-0.90;99.90;;;;;;5007856;28;20428;-60
2021/12/21 10:15:39;;;;;;;15.47;8.77;;;-0.70;99.60;;;;;;5007488;28;20494;-59
2021/12/21 10:18:05;;;;;;;18.83;9.77;;;-0.70;99.30;;;;;;5005875;28;20572;-57
2021/12/21 10:20:43;;;;;;;13.10;9.17;;;-0.60;99.00;;;;;;5022841;28;20951;-56
2021/12/21 10:23:23;;;;;;;13.43;7.93;;;-0.50;98.40;;;;;;5010522;28;20189;-58
2021/12/21 10:26:10;;;;;;;11.77;8.00;;;-0.40;97.40;;;;;;5010709;28;20822;-57
2021/12/21 10:28:57;;;;;;;14.93;8.70;;;-0.30;97.00;;;;;;5008818;28;20457;-55
2021/12/21 10:31:22;;;;;;;11.27;7.93;;;-0.20;97.20;;;;;;5008809;28;20472;-58
2021/12/21 10:33:48;;;;;;;13.17;7.03;;;-0.10;96.80;;;;;;5008080;28;20464;-56
2021/12/21 10:36:15;;;;;;;18.00;8.07;;;0.00;95.50;;;;;;5007213;28;20182;-56
2021/12/21 10:38:51;;;;;;;15.70;8.43;;;0.10;94.20;;;;;;5015707;28;20445;-56
2021/12/21 10:41:27;;;;;;;15.17;8.03;;;0.30;93.60;;;;;;5005688;28;21535;-60
2021/12/21 10:44:04;;;;;;;14.43;8.87;;;0.30;92.80;;;;;;5016061;28;20484;-56
2021/12/21 10:46:31;;;;;;;16.70;8.37;;;0.50;93.10;;;;;;5005267;28;20523;-59
2021/12/21 10:49:15;;;;;;;14.30;7.93;;;0.70;92.60;;;;;;5010615;28;20548;-55
2021/12/21 10:51:58;;;;;;;16.70;8.43;;;0.90;91.70;;;;;;5001275;28;20444;-58
2021/12/21 10:54:32;;;;;;;15.20;8.47;;;1.00;90.10;;;;;;5008911;28;20435;-56
2021/12/21 10:57:11;;;;;;;15.43;7.97;;;1.10;85.70;;;;;;4995879;28;21007;-59
2021/12/21 10:59:40;;;;;;;11.00;8.13;;;1.30;85.60;;;;;;5011453;28;20455;-55
2021/12/21 11:02:24;;;;;;;13.20;8.50;;;1.30;81.40;;;;;;5023674;28;20487;-57
2021/12/21 11:04:54;;;;;;;13.23;6.67;;;1.40;78.10;;;;;;5006339;28;20932;-55
2021/12/21 11:07:33;;;;;;;15.20;7.90;;;1.50;75.80;;;;;;5008281;28;20472;-58
2021/12/21 11:10:10;;;;;;;13.13;6.90;;;1.60;73.10;;;;;;5003639;28;20551;-58
2021/12/21 11:12:50;;;;;;;11.00;7.80;;;1.50;70.90;;;;;;5022541;28;21018;-55
2021/12/21 11:15:28;;;;;;;14.07;7.47;;;1.50;71.10;;;;;;5017163;28;20503;-55
2021/12/21 11:17:59;;;;;;;12.53;9.27;;;1.60;73.20;;;;;;5028622;28;20548;-61
2021/12/21 11:20:25;;;;;;;17.60;8.87;;;1.70;74.50;;;;;;5040560;28;20421;-60
2021/12/21 11:22:52;;;;;;;16.57;8.50;;;1.80;72.90;;;;;;5012140;28;20442;-58
2021/12/21 11:25:19;;;;;;;17.17;9.30;;;1.80;70.00;;;;;;5008075;28;20438;-58
2021/12/21 11:27:45;;;;;;;17.20;9.63;;;1.80;69.90;;;;;;5003269;28;20499;-57
2021/12/21 11:30:23;;;;;;;17.53;9.23;;;1.90;70.00;;;;;;5006344;28;20480;-57
2021/12/21 11:32:51;;;;;;;13.93;9.33;;;1.90;69.60;;;;;;5004760;28;20186;-58
2021/12/21 11:37:56;;;;;;;17.70;10.60;;;1.90;67.60;;;;;;5007693;28;20512;-58
2021/12/21 11:40:26;;;;;;;22.30;10.83;;;1.70;67.80;;;;;;5000134;28;20994;-57
2021/12/21 11:43:05;;;;;;;17.20;9.30;;;1.60;67.50;;;;;;5021205;28;20465;-58
2021/12/21 11:45:37;;;;;;;14.00;9.40;;;1.50;68.10;;;;;;5010464;28;20492;-57
2021/12/21 11:48:09;;;;;;;19.13;9.53;;;1.30;69.80;;;;;;5006336;28;20478;-60
2021/12/21 11:50:37;;;;;;;12.80;8.27;;;1.20;69.30;;;;;;5015909;28;20920;-56
2021/12/21 11:53:05;;;;;;;13.80;8.13;;;1.00;70.20;;;;;;5002940;28;20445;-61
2021/12/21 11:55:33;;;;;;;14.87;8.20;;;0.80;71.70;;;;;;5008475;28;20453;-58
2021/12/21 11:58:12;;;;;;;15.27;8.60;;;0.60;72.30;;;;;;5003982;28;20453;-55
2021/12/21 12:00:38;;;;;;;11.70;7.93;;;0.50;72.80;;;;;;5023760;28;20468;-60
2021/12/21 12:03:12;;;;;;;16.53;8.40;;;0.40;74.60;;;;;;5019022;28;20439;-58
2021/12/21 12:05:42;;;;;;;15.30;8.30;;;0.40;76.70;;;;;;5015650;28;20825;-54
2021/12/21 12:08:11;;;;;;;14.47;9.07;;;0.40;78.00;;;;;;5009868;28;20458;-56
2021/12/21 12:10:45;;;;;;;15.27;8.27;;;0.40;79.10;;;;;;5016411;28;21049;-59
2021/12/21 12:13:14;;;;;;;16.67;9.20;;;0.40;78.60;;;;;;5015822;28;20448;-59
2021/12/21 12:16:01;;;;;;;16.57;8.23;;;0.30;79.20;;;;;;5020827;28;20430;-61
2021/12/21 12:18:37;;;;;;;17.93;8.30;;;0.40;79.80;;;;;;5019673;28;20480;-59
2021/12/21 12:21:21;;;;;;;14.80;8.73;;;0.40;79.80;;;;;;5018797;28;20441;-62
2021/12/21 12:23:56;;;;;;;14.87;9.00;;;0.40;79.90;;;;;;5001278;28;20573;-58
2021/12/21 12:26:36;;;;;;;20.53;9.37;;;0.40;79.80;;;;;;4993108;28;20436;-58
2021/12/21 12:29:14;;;;;;;28.20;11.93;;;0.40;79.90;;;;;;4998564;28;20470;-58
2021/12/21 12:31:42;;;;;;;14.70;8.10;;;0.40;79.90;;;;;;5007222;28;20467;-60
2021/12/21 12:34:08;;;;;;;13.37;7.87;;;0.40;79.50;;;;;;5016842;28;20424;-61
2021/12/21 12:36:51;;;;;;;14.13;7.80;;;0.40;80.20;;;;;;5025655;28;20433;-62
2021/12/21 12:39:41;;;;;;;16.23;9.27;;;0.50;80.10;;;;;;5022723;28;20587;-61
2021/12/21 12:42:10;;;;;;;15.70;8.03;;;0.50;80.40;;;;;;5024233;28;20627;-59
2021/12/21 12:44:38;;;;;;;16.60;8.00;;;0.50;79.90;;;;;;5004559;28;20445;-57
2021/12/21 12:47:07;;;;;;;15.87;8.10;;;0.50;80.30;;;;;;5002768;28;21152;-58
2021/12/21 12:49:36;;;;;;;18.60;7.93;;;0.50;80.20;;;;;;5023019;28;20467;-58
2021/12/21 12:52:18;;;;;;;15.63;8.20;;;0.60;79.90;;;;;;5007630;28;20443;-56
2021/12/21 12:54:52;;;;;;;12.33;8.33;;;0.60;79.00;;;;;;5003527;28;20539;-57
2021/12/21 12:57:26;;;;;;;14.83;9.13;;;0.60;78.30;;;;;;5006894;28;20612;-59
2021/12/21 12:59:55;;;;;;;15.50;8.37;;;0.60;77.80;;;;;;5044046;28;20465;-60
2021/12/21 13:02:21;;;;;;;14.07;8.13;;;0.60;77.80;;;;;;5014776;28;20427;-59
2021/12/21 13:04:47;;;;;;;19.97;8.30;;;0.60;78.10;;;;;;5009402;28;20437;-58
2021/12/21 13:07:14;;;;;;;19.43;7.77;;;0.60;79.40;;;;;;5012101;28;20835;-55
2021/12/21 13:09:39;;;;;;;12.30;7.53;;;0.70;80.20;;;;;;5000572;28;20851;-58
2021/12/21 13:12:11;;;;;;;13.57;7.60;;;0.70;80.20;;;;;;5011182;28;20465;-55
2021/12/21 13:14:36;;;;;;;12.70;7.60;;;0.80;78.90;;;;;;5010624;28;20339;-59
2021/12/21 13:17:02;;;;;;;15.83;7.63;;;0.80;78.20;;;;;;5009348;28;20948;-56
2021/12/21 13:19:30;;;;;;;14.30;7.40;;;0.90;78.40;;;;;;5010598;28;20222;-56
2021/12/21 13:21:58;;;;;;;14.93;8.60;;;0.90;77.20;;;;;;5028776;28;20222;-56
2021/12/21 13:24:29;;;;;;;12.03;7.63;;;0.90;75.90;;;;;;5008841;28;20517;-58
2021/12/21 13:26:57;;;;;;;14.63;8.43;;;1.00;76.40;;;;;;5003767;28;20445;-56
2021/12/21 13:29:35;;;;;;;18.40;8.77;;;1.10;77.60;;;;;;5000986;28;20499;-58
2021/12/21 13:32:04;;;;;;;11.10;7.50;;;1.20;77.10;;;;;;5005303;28;21185;-58
2021/12/21 13:34:31;;;;;;;12.97;7.27;;;1.30;73.90;;;;;;5009168;28;20493;-58
2021/12/21 13:37:09;;;;;;;14.27;8.03;;;1.30;71.70;;;;;;5009954;28;20492;-58
2021/12/21 13:39:38;;;;;;;21.97;9.37;;;1.30;70.10;;;;;;5000849;28;20580;-59
2021/12/21 13:42:08;;;;;;;19.33;8.87;;;1.20;69.50;;;;;;5009793;28;20569;-56
2021/12/21 13:44:36;;;;;;;18.60;7.87;;;1.10;68.60;;;;;;5010531;28;20417;-57
2021/12/21 13:47:06;;;;;;;14.93;7.90;;;0.90;68.90;;;;;;5020467;28;20479;-59
2021/12/21 13:49:31;;;;;;;14.07;7.43;;;0.80;69.70;;;;;;5035378;28;20556;-58